createdAt,value
2023-02-14T00:01:20.614Z,6.78
2023-02-14T00:03:49.309Z,7.72
2023-02-14T00:06:17.331Z,10.25
2023-02-14T00:08:45.534Z,9.55
2023-02-14T00:11:14.154Z,8.15
2023-02-14T00:14:01.574Z,9.15
2023-02-14T00:16:28.867Z,7.55
2023-02-14T00:19:05.585Z,6.43
2023-02-14T00:21:36.807Z,6.13
2023-02-14T00:24:09.745Z,6.65
2023-02-14T00:26:38.686Z,9.00
2023-02-14T00:29:17.146Z,6.95
2023-02-14T00:31:45.105Z,8.32
2023-02-14T00:34:14.231Z,6.38
2023-02-14T00:36:41.737Z,7.28
2023-02-14T00:39:11.471Z,8.75
2023-02-14T00:41:40.086Z,6.50
2023-02-14T00:44:07.830Z,6.47
2023-02-14T00:46:35.312Z,9.15
2023-02-14T00:49:02.611Z,9.60
2023-02-14T00:51:30.800Z,6.63
2023-02-14T00:53:58.061Z,7.40
2023-02-14T00:56:25.363Z,9.35
2023-02-14T00:58:52.551Z,9.23
2023-02-14T01:01:19.991Z,6.90
2023-02-14T01:03:47.927Z,6.07
2023-02-14T01:06:15.970Z,10.85
2023-02-14T01:08:43.224Z,6.93
2023-02-14T01:11:17.484Z,16.27
2023-02-14T01:13:47.585Z,6.93
2023-02-14T01:16:17.997Z,10.38
2023-02-14T01:18:46.163Z,7.75
2023-02-14T01:21:18.456Z,7.03
2023-02-14T01:23:48.246Z,5.70
2023-02-14T01:26:16.406Z,7.28
2023-02-14T01:28:44.892Z,7.40
2023-02-14T01:31:21.431Z,9.35
2023-02-14T01:33:49.982Z,7.20
2023-02-14T01:36:20.768Z,7.22
2023-02-14T01:38:50.873Z,8.10
2023-02-14T01:41:18.149Z,7.97
2023-02-14T01:44:14.185Z,8.18
2023-02-14T01:46:43.822Z,6.65
2023-02-14T01:49:34.821Z,8.98
2023-02-14T01:52:06.926Z,8.93
2023-02-14T01:54:37.744Z,8.10
2023-02-14T01:57:09.977Z,8.02
2023-02-14T01:59:42.729Z,10.97
2023-02-14T02:02:10.851Z,9.77
2023-02-14T02:04:42.889Z,8.07
2023-02-14T02:07:14.791Z,8.67
2023-02-14T02:09:53.658Z,9.35
2023-02-14T02:12:24.545Z,11.20
2023-02-14T02:14:55.110Z,7.97
2023-02-14T02:17:43.541Z,8.88
2023-02-14T02:20:44.568Z,8.13
2023-02-14T02:23:46.217Z,8.35
2023-02-14T02:27:00.440Z,7.85
2023-02-14T02:30:09.194Z,8.10
2023-02-14T02:32:56.706Z,10.73
2023-02-14T02:35:36.091Z,7.22
2023-02-14T02:38:17.785Z,9.70
2023-02-14T02:41:03.895Z,6.30
2023-02-14T02:43:55.096Z,10.63
2023-02-14T02:46:48.931Z,12.02
2023-02-14T02:49:50.063Z,12.80
2023-02-14T02:52:47.046Z,9.33
2023-02-14T02:55:27.246Z,8.30
2023-02-14T02:57:56.579Z,10.97
2023-02-14T03:00:24.992Z,12.63
2023-02-14T03:03:14.208Z,9.73
2023-02-14T03:05:42.492Z,9.63
2023-02-14T03:08:09.696Z,10.23
2023-02-14T03:10:39.321Z,8.83
2023-02-14T03:13:44.221Z,9.37
2023-02-14T03:16:33.351Z,9.73
2023-02-14T03:20:11.634Z,10.20
2023-02-14T03:22:54.056Z,9.87
2023-02-14T03:25:53.772Z,11.70
2023-02-14T03:28:32.989Z,12.57
2023-02-14T03:31:31.023Z,10.97
2023-02-14T03:34:07.533Z,11.67
2023-02-14T03:36:40.721Z,14.27
2023-02-14T03:39:26.144Z,13.77
2023-02-14T03:42:06.204Z,13.73
2023-02-14T03:44:36.103Z,11.67
2023-02-14T03:47:14.529Z,14.37
2023-02-14T03:49:46.515Z,12.43
2023-02-14T03:52:16.037Z,11.37
2023-02-14T03:54:45.144Z,12.07
2023-02-14T03:57:30.229Z,10.90
2023-02-14T03:59:57.837Z,13.17
2023-02-14T04:02:39.001Z,11.23
2023-02-14T04:05:15.802Z,13.07
2023-02-14T04:07:55.197Z,13.10
2023-02-14T04:10:23.650Z,13.40
2023-02-14T04:12:51.029Z,17.10
2023-02-14T04:15:18.417Z,12.50
2023-02-14T04:18:04.259Z,11.93
2023-02-14T04:20:31.710Z,12.20
2023-02-14T04:22:58.956Z,13.70
2023-02-14T04:25:26.526Z,14.17
2023-02-14T04:27:53.835Z,12.30
2023-02-14T04:30:22.732Z,17.07
2023-02-14T04:32:50.096Z,14.13
2023-02-14T04:35:17.439Z,14.43
2023-02-14T04:37:45.578Z,14.83
2023-02-14T04:40:16.871Z,14.27
2023-02-14T04:42:47.271Z,13.67
2023-02-14T04:45:15.090Z,18.13
2023-02-14T04:47:42.445Z,14.90
2023-02-14T04:50:10.045Z,14.17
2023-02-14T04:52:37.383Z,18.67
2023-02-14T04:55:05.661Z,17.33
2023-02-14T04:57:32.949Z,13.70
2023-02-14T05:00:00.325Z,17.80
2023-02-14T05:02:27.697Z,18.53
2023-02-14T05:04:55.022Z,17.60
2023-02-14T05:07:22.368Z,14.77
2023-02-14T05:09:49.641Z,14.43
2023-02-14T05:12:16.994Z,17.33
2023-02-14T05:14:44.281Z,18.37
2023-02-14T05:17:11.608Z,18.80
2023-02-14T05:19:38.917Z,18.37
2023-02-14T05:22:06.239Z,15.37
2023-02-14T05:24:33.602Z,17.83
2023-02-14T05:27:00.984Z,20.90
2023-02-14T05:29:28.379Z,17.23
2023-02-14T05:31:55.702Z,17.10
2023-02-14T05:34:22.928Z,15.67
2023-02-14T05:36:50.199Z,14.57
2023-02-14T05:39:17.455Z,17.40
2023-02-14T05:41:44.678Z,16.17
2023-02-14T05:44:12.073Z,15.63
2023-02-14T05:46:39.357Z,22.67
2023-02-14T05:49:06.660Z,24.47
2023-02-14T05:51:33.898Z,17.83
2023-02-14T05:54:01.282Z,18.43
2023-02-14T05:56:28.594Z,18.77
2023-02-14T05:58:55.825Z,17.87
2023-02-14T06:01:23.178Z,19.87
2023-02-14T06:03:50.461Z,19.50
2023-02-14T06:06:17.678Z,18.47
2023-02-14T06:08:45.063Z,17.90
2023-02-14T06:11:12.361Z,24.57
2023-02-14T06:13:41.518Z,20.30
2023-02-14T06:16:08.768Z,23.00
2023-02-14T06:18:36.319Z,21.23
2023-02-14T06:21:03.698Z,18.73
2023-02-14T06:23:30.947Z,18.87
2023-02-14T06:25:58.212Z,23.03
2023-02-14T06:28:25.596Z,24.63
2023-02-14T06:30:53.080Z,21.53
2023-02-14T06:33:20.463Z,23.37
2023-02-14T06:35:50.314Z,23.67
2023-02-14T06:38:19.084Z,19.27
2023-02-14T06:40:46.285Z,21.37
2023-02-14T06:43:13.520Z,24.00
2023-02-14T06:45:43.714Z,20.60
2023-02-14T06:48:11.133Z,22.77
2023-02-14T06:50:38.438Z,26.07
2023-02-14T06:53:06.195Z,24.43
2023-02-14T06:55:33.542Z,28.33
2023-02-14T06:58:00.853Z,22.80
2023-02-14T07:00:28.251Z,22.33
2023-02-14T07:02:55.692Z,29.23
2023-02-14T07:05:22.967Z,27.70
2023-02-14T07:07:50.278Z,27.33
2023-02-14T07:10:17.602Z,24.43
2023-02-14T07:12:45.192Z,27.73
2023-02-14T07:15:13.497Z,29.43
2023-02-14T07:17:40.971Z,23.73
2023-02-14T07:20:09.541Z,22.47
2023-02-14T07:22:37.873Z,28.17
2023-02-14T07:25:07.108Z,30.80
2023-02-14T07:27:34.586Z,28.37
2023-02-14T07:30:02.160Z,26.27
2023-02-14T07:32:29.577Z,30.33
2023-02-14T07:34:57.032Z,28.77
2023-02-14T07:37:24.709Z,28.60
2023-02-14T07:39:52.001Z,23.83
2023-02-14T07:42:19.403Z,28.23
2023-02-14T07:44:46.746Z,28.50
2023-02-14T07:47:14.130Z,30.70
2023-02-14T07:49:41.322Z,24.87
2023-02-14T07:52:08.797Z,25.17
2023-02-14T07:54:36.210Z,25.40
2023-02-14T07:57:03.547Z,26.17
2023-02-14T07:59:31.030Z,24.33
2023-02-14T08:01:58.327Z,25.80
2023-02-14T08:04:28.408Z,25.57
2023-02-14T08:06:55.708Z,21.10
2023-02-14T08:09:26.216Z,30.47
2023-02-14T08:12:16.926Z,26.20
2023-02-14T08:14:44.819Z,22.43
2023-02-14T08:17:13.440Z,27.70
2023-02-14T08:19:40.940Z,27.83
2023-02-14T08:22:08.765Z,23.80
2023-02-14T08:24:36.445Z,23.30
2023-02-14T08:27:03.914Z,25.20
2023-02-14T08:29:31.268Z,28.00
2023-02-14T08:32:00.480Z,22.93
2023-02-14T08:34:28.035Z,27.00
2023-02-14T08:36:55.471Z,21.50
2023-02-14T08:39:22.941Z,28.43
2023-02-14T08:41:50.344Z,29.27
2023-02-14T08:44:17.834Z,26.70
2023-02-14T08:46:45.231Z,22.17
2023-02-14T08:49:12.551Z,28.40
2023-02-14T08:51:39.850Z,23.30
2023-02-14T08:54:07.280Z,28.53
2023-02-14T08:56:35.376Z,24.80
2023-02-14T08:59:02.655Z,22.40
2023-02-14T09:01:30.082Z,21.00
2023-02-14T09:03:58.125Z,24.10
2023-02-14T09:06:25.590Z,23.07
2023-02-14T09:08:55.142Z,23.17
2023-02-14T09:11:24.403Z,23.57
2023-02-14T09:13:55.519Z,22.23
2023-02-14T09:16:24.335Z,20.63
2023-02-14T09:18:53.345Z,25.17
2023-02-14T09:21:26.618Z,26.07
2023-02-14T09:23:54.702Z,23.17
2023-02-14T09:26:22.186Z,27.30
2023-02-14T09:28:49.590Z,22.33
2023-02-14T09:31:19.990Z,24.20
2023-02-14T09:33:48.561Z,27.17
2023-02-14T09:36:34.434Z,22.13
2023-02-14T09:39:01.922Z,27.17
2023-02-14T09:41:29.135Z,23.57
2023-02-14T09:44:21.673Z,23.07
2023-02-14T09:46:53.316Z,23.93
2023-02-14T09:49:37.372Z,22.65
2023-02-14T09:52:07.697Z,29.17
2023-02-14T09:54:37.053Z,21.03
2023-02-14T09:57:13.696Z,22.23
2023-02-14T09:59:48.911Z,23.53
2023-02-14T10:02:48.628Z,21.03
2023-02-14T10:05:28.609Z,32.25
2023-02-14T10:07:58.016Z,22.75
2023-02-14T10:10:27.642Z,22.67
2023-02-14T10:13:29.512Z,22.33
2023-02-14T10:16:12.262Z,23.40
2023-02-14T10:19:01.534Z,23.20
2023-02-14T10:21:40.165Z,23.88
2023-02-14T10:24:27.351Z,24.10
2023-02-14T10:27:03.087Z,23.52
2023-02-14T10:29:30.453Z,22.95
2023-02-14T10:32:04.703Z,24.83
2023-02-14T10:34:43.743Z,22.02
2023-02-14T10:37:29.634Z,25.27
2023-02-14T10:40:06.163Z,25.60
2023-02-14T10:42:50.930Z,21.63
2023-02-14T10:45:26.328Z,21.13
2023-02-14T10:48:25.153Z,22.90
2023-02-14T10:51:10.956Z,27.25
2023-02-14T10:54:16.012Z,25.50
2023-02-14T10:57:00.346Z,21.63
2023-02-14T10:59:52.597Z,21.83
2023-02-14T11:02:24.515Z,24.95
2023-02-14T11:04:52.508Z,20.90
2023-02-14T11:07:21.658Z,20.83
2023-02-14T11:09:49.344Z,22.90
2023-02-14T11:12:33.531Z,19.17
2023-02-14T11:15:21.821Z,17.40
2023-02-14T11:18:20.410Z,23.02
2023-02-14T11:21:17.752Z,24.08
2023-02-14T11:23:50.264Z,18.55
2023-02-14T11:26:17.727Z,21.42
2023-02-14T11:28:52.460Z,22.65
2023-02-14T11:31:34.743Z,25.77
2023-02-14T11:34:05.310Z,22.20
2023-02-14T11:36:40.119Z,18.48
2023-02-14T11:39:25.850Z,22.92
2023-02-14T11:41:56.263Z,17.67
2023-02-14T11:44:26.960Z,18.60
2023-02-14T11:46:57.051Z,18.00
2023-02-14T11:49:35.343Z,17.65
2023-02-14T11:52:11.888Z,20.65
2023-02-14T11:54:44.892Z,18.38
2023-02-14T11:57:23.398Z,20.83
2023-02-14T11:59:54.226Z,21.63
2023-02-14T12:02:38.088Z,18.42
2023-02-14T12:05:21.019Z,23.05
2023-02-14T12:08:00.683Z,19.90
2023-02-14T12:10:29.074Z,17.02
2023-02-14T12:13:00.030Z,17.98
2023-02-14T12:15:40.660Z,16.98
2023-02-14T12:18:35.189Z,19.63
2023-02-14T12:21:24.278Z,20.02
2023-02-14T12:24:13.414Z,18.30
2023-02-14T12:26:49.837Z,21.90
2023-02-14T12:29:41.564Z,19.48
2023-02-14T12:32:21.431Z,17.73
2023-02-14T12:34:49.844Z,21.55
2023-02-14T12:37:31.138Z,17.48
2023-02-14T12:40:17.063Z,18.83
2023-02-14T12:43:15.091Z,19.83
2023-02-14T12:46:09.592Z,16.73
2023-02-14T12:49:13.623Z,18.27
2023-02-14T12:51:50.411Z,16.63
2023-02-14T12:54:42.463Z,17.85
2023-02-14T12:57:25.027Z,16.52
2023-02-14T13:00:15.008Z,15.80
2023-02-14T13:03:08.663Z,19.95
2023-02-14T13:06:13.787Z,14.77
2023-02-14T13:09:04.145Z,17.55
2023-02-14T13:11:34.383Z,21.90
2023-02-14T13:14:16.685Z,14.40
2023-02-14T13:17:03.536Z,17.80
2023-02-14T13:19:45.892Z,15.88
2023-02-14T13:22:21.687Z,14.80
2023-02-14T13:24:51.900Z,17.65
2023-02-14T13:27:24.772Z,15.75
2023-02-14T13:29:57.617Z,15.82
2023-02-14T13:32:30.637Z,15.23
2023-02-14T13:34:58.663Z,15.38
2023-02-14T13:37:27.446Z,16.63
2023-02-14T13:39:59.165Z,12.45
2023-02-14T13:42:48.568Z,15.35
2023-02-14T13:45:40.098Z,17.92
2023-02-14T13:48:39.200Z,15.48
2023-02-14T13:51:09.468Z,14.68
2023-02-14T13:53:43.035Z,15.05
2023-02-14T13:56:13.257Z,16.40
2023-02-14T13:58:49.927Z,15.60
2023-02-14T14:01:41.127Z,14.20
2023-02-14T14:04:27.965Z,17.60
2023-02-14T14:07:04.041Z,16.23
2023-02-14T14:09:43.736Z,15.23
2023-02-14T14:12:29.322Z,18.05
2023-02-14T14:15:05.470Z,19.00
2023-02-14T14:17:38.068Z,15.35
2023-02-14T14:20:25.585Z,15.98
2023-02-14T14:23:00.192Z,13.98
2023-02-14T14:25:38.637Z,16.05
2023-02-14T14:28:20.612Z,15.50
2023-02-14T14:30:48.236Z,15.82
2023-02-14T14:33:16.891Z,13.60
2023-02-14T14:36:10.111Z,14.63
2023-02-14T14:38:49.369Z,12.95
2023-02-14T14:41:16.953Z,15.43
2023-02-14T14:43:44.403Z,15.32
2023-02-14T14:46:13.179Z,15.25
2023-02-14T14:48:54.385Z,13.73
2023-02-14T14:51:33.296Z,14.27
2023-02-14T14:54:14.222Z,10.50
2023-02-14T14:56:56.768Z,14.05
2023-02-14T14:59:35.417Z,13.63
2023-02-14T15:02:07.450Z,13.20
2023-02-14T15:04:35.700Z,12.32
2023-02-14T15:07:34.654Z,12.98
2023-02-14T15:10:03.193Z,12.82
2023-02-14T15:13:03.114Z,13.02
2023-02-14T15:15:30.728Z,13.05
2023-02-14T15:17:58.135Z,11.90
2023-02-14T15:20:26.359Z,12.75
2023-02-14T15:22:54.110Z,12.15
2023-02-14T15:25:31.968Z,14.30
2023-02-14T15:27:59.502Z,14.20
2023-02-14T15:30:37.104Z,13.05
2023-02-14T15:33:10.354Z,13.65
2023-02-14T15:35:44.403Z,15.25
2023-02-14T15:38:13.505Z,12.77
2023-02-14T15:40:43.539Z,11.85
2023-02-14T15:43:25.101Z,11.73
2023-02-14T15:45:58.119Z,16.08
2023-02-14T15:48:33.192Z,15.10
2023-02-14T15:51:02.718Z,14.85
2023-02-14T15:53:43.275Z,14.18
2023-02-14T15:56:28.479Z,12.30
2023-02-14T15:59:03.967Z,13.63
2023-02-14T16:01:34.051Z,15.55
2023-02-14T16:04:05.606Z,13.05
2023-02-14T16:06:39.673Z,13.27
2023-02-14T16:09:25.802Z,15.15
2023-02-14T16:11:54.139Z,12.57
2023-02-14T16:14:32.156Z,13.77
2023-02-14T16:17:31.364Z,13.88
2023-02-14T16:19:59.720Z,15.32
2023-02-14T16:22:32.073Z,11.63
2023-02-14T16:25:00.458Z,12.63
2023-02-14T16:27:27.823Z,15.05
2023-02-14T16:29:55.374Z,12.02
2023-02-14T16:32:24.221Z,14.13
2023-02-14T16:34:51.801Z,18.35
2023-02-14T16:37:46.254Z,15.57
2023-02-14T16:40:15.265Z,13.90
2023-02-14T16:42:43.308Z,12.98
2023-02-14T16:45:18.910Z,17.95
2023-02-14T16:47:49.298Z,15.27
2023-02-14T16:50:17.713Z,14.23
2023-02-14T16:52:50.665Z,13.70
2023-02-14T16:55:19.821Z,13.43
2023-02-14T16:57:49.448Z,13.55
2023-02-14T17:00:17.682Z,12.63
2023-02-14T17:02:45.518Z,12.18
2023-02-14T17:05:12.863Z,12.68
2023-02-14T17:07:43.111Z,16.00
2023-02-14T17:10:17.446Z,13.75
2023-02-14T17:12:47.257Z,14.68
2023-02-14T17:15:18.959Z,18.40
2023-02-14T17:17:48.380Z,15.45
2023-02-14T17:20:16.683Z,15.95
2023-02-14T17:22:44.636Z,14.20
2023-02-14T17:25:12.188Z,15.60
2023-02-14T17:27:44.285Z,14.00
2023-02-14T17:30:12.725Z,16.42
2023-02-14T17:32:40.345Z,18.67
2023-02-14T17:35:09.033Z,13.68
2023-02-14T17:37:37.090Z,16.05
2023-02-14T17:40:05.967Z,15.55
2023-02-14T17:42:34.544Z,13.73
2023-02-14T17:45:02.411Z,14.60
2023-02-14T17:47:29.912Z,17.30
2023-02-14T17:49:57.259Z,16.20
2023-02-14T17:52:25.397Z,15.65
2023-02-14T17:54:52.916Z,15.90
2023-02-14T17:57:20.790Z,17.27
2023-02-14T17:59:47.981Z,16.08
2023-02-14T18:02:15.280Z,14.95
2023-02-14T18:04:42.583Z,15.43
2023-02-14T18:07:09.885Z,15.35
2023-02-14T18:09:37.191Z,17.02
2023-02-14T18:12:04.938Z,17.67
2023-02-14T18:14:32.541Z,16.80
2023-02-14T18:17:02.946Z,17.58
2023-02-14T18:19:30.584Z,18.98
2023-02-14T18:21:57.871Z,20.15
2023-02-14T18:24:25.231Z,17.23
2023-02-14T18:26:53.518Z,16.00
2023-02-14T18:29:21.408Z,17.95
2023-02-14T18:31:49.005Z,18.17
2023-02-14T18:34:16.418Z,18.33
2023-02-14T18:36:43.780Z,20.05
2023-02-14T18:39:11.793Z,21.73
2023-02-14T18:41:39.123Z,17.05
2023-02-14T18:44:06.997Z,19.58
2023-02-14T18:46:35.706Z,26.85
2023-02-14T18:49:05.929Z,17.38
2023-02-14T18:51:37.182Z,17.40
2023-02-14T18:54:05.039Z,20.23
2023-02-14T18:56:35.829Z,22.25
2023-02-14T18:59:07.100Z,17.92
2023-02-14T19:01:37.011Z,18.08
2023-02-14T19:04:06.782Z,20.23
2023-02-14T19:06:34.856Z,21.65
2023-02-14T19:09:03.998Z,19.20
2023-02-14T19:11:32.675Z,22.13
2023-02-14T19:14:02.077Z,18.67
2023-02-14T19:16:33.109Z,18.48
2023-02-14T19:19:02.590Z,21.30
2023-02-14T19:21:33.850Z,22.45
2023-02-14T19:24:03.098Z,20.98
2023-02-14T19:26:34.845Z,22.92
2023-02-14T19:29:05.416Z,21.10
2023-02-14T19:31:36.576Z,21.77
2023-02-14T19:34:06.235Z,20.00
2023-02-14T19:36:36.363Z,21.35
2023-02-14T19:39:04.553Z,25.15
2023-02-14T19:41:34.403Z,24.30
2023-02-14T19:44:04.825Z,26.73
2023-02-14T19:46:34.195Z,24.43
2023-02-14T19:49:02.121Z,17.57
2023-02-14T19:51:32.829Z,24.67
2023-02-14T19:54:03.248Z,22.38
2023-02-14T19:56:33.169Z,24.17
2023-02-14T19:59:00.958Z,26.60
2023-02-14T20:01:33.156Z,20.65
2023-02-14T20:04:00.901Z,23.87
2023-02-14T20:06:31.548Z,22.90
2023-02-14T20:08:58.793Z,23.13
2023-02-14T20:11:33.493Z,25.13
2023-02-14T20:14:01.688Z,24.25
2023-02-14T20:16:31.129Z,20.08
2023-02-14T20:19:00.621Z,24.42
2023-02-14T20:21:28.520Z,23.83
2023-02-14T20:24:03.255Z,25.47
2023-02-14T20:26:33.429Z,24.73
2023-02-14T20:29:05.974Z,23.83
2023-02-14T20:31:34.075Z,21.87
2023-02-14T20:34:01.638Z,21.88
2023-02-14T20:36:29.396Z,21.93
2023-02-14T20:39:01.100Z,24.03
2023-02-14T20:41:29.273Z,23.40
2023-02-14T20:44:05.968Z,26.40
2023-02-14T20:46:34.598Z,22.00
2023-02-14T20:49:02.340Z,28.15
2023-02-14T20:51:29.723Z,24.00
2023-02-14T20:53:57.172Z,23.40
2023-02-14T20:56:24.592Z,23.93
2023-02-14T20:58:53.314Z,21.80
2023-02-14T21:01:23.016Z,25.13
2023-02-14T21:03:52.624Z,25.97
2023-02-14T21:06:26.700Z,21.00
2023-02-14T21:08:54.033Z,28.67
2023-02-14T21:11:24.128Z,24.37
2023-02-14T21:13:58.596Z,21.90
2023-02-14T21:16:27.498Z,22.33
2023-02-14T21:18:59.034Z,24.13
2023-02-14T21:21:35.008Z,26.60
2023-02-14T21:24:07.397Z,25.00
2023-02-14T21:26:36.038Z,22.90
2023-02-14T21:29:04.184Z,26.97
2023-02-14T21:31:32.501Z,22.73
2023-02-14T21:34:01.535Z,23.57
2023-02-14T21:36:31.649Z,24.47
2023-02-14T21:38:59.969Z,21.37
2023-02-14T21:41:29.384Z,26.67
2023-02-14T21:43:58.557Z,23.10
2023-02-14T21:46:31.331Z,26.33
2023-02-14T21:49:22.363Z,24.47
2023-02-14T21:51:49.915Z,23.20
2023-02-14T21:54:17.606Z,22.60
2023-02-14T21:56:45.562Z,23.83
2023-02-14T21:59:14.336Z,25.97
2023-02-14T22:01:42.614Z,22.43
2023-02-14T22:04:12.388Z,25.83
2023-02-14T22:06:41.703Z,26.30
2023-02-14T22:09:11.055Z,26.53
2023-02-14T22:11:38.880Z,25.27
2023-02-14T22:14:06.119Z,26.83
2023-02-14T22:16:33.542Z,25.70
2023-02-14T22:19:00.842Z,28.00
2023-02-14T22:21:28.383Z,28.17
2023-02-14T22:23:55.850Z,26.13
2023-02-14T22:26:28.544Z,25.97
2023-02-14T22:28:59.127Z,24.60
2023-02-14T22:31:28.871Z,27.23
2023-02-14T22:33:56.670Z,26.30
2023-02-14T22:36:24.266Z,27.13
2023-02-14T22:38:51.791Z,25.53
2023-02-14T22:41:21.516Z,27.83
2023-02-14T22:43:49.036Z,23.90
2023-02-14T22:46:28.059Z,28.77
2023-02-14T22:48:57.030Z,25.30
2023-02-14T22:51:33.046Z,29.23
2023-02-14T22:54:04.396Z,23.63
2023-02-14T22:56:34.536Z,25.67
2023-02-14T22:59:04.793Z,29.13
2023-02-14T23:01:33.192Z,25.60
2023-02-14T23:04:02.309Z,27.83
2023-02-14T23:06:32.114Z,26.23
2023-02-14T23:09:00.630Z,28.20
2023-02-14T23:11:30.721Z,31.07
2023-02-14T23:14:16.848Z,30.43
2023-02-14T23:17:03.708Z,28.43
2023-02-14T23:19:53.011Z,25.13
2023-02-14T23:22:23.130Z,28.43
2023-02-14T23:24:53.002Z,28.33
2023-02-14T23:27:23.472Z,29.70
2023-02-14T23:29:50.749Z,26.63
2023-02-14T23:32:18.142Z,28.47
2023-02-14T23:34:45.795Z,27.67
2023-02-14T23:37:13.896Z,26.00
2023-02-14T23:39:41.921Z,30.30
2023-02-14T23:42:12.132Z,32.37
2023-02-14T23:44:40.054Z,27.73
2023-02-14T23:47:08.607Z,28.13
2023-02-14T23:49:37.266Z,30.90
2023-02-14T23:52:06.620Z,30.47
2023-02-14T23:54:38.811Z,30.17
2023-02-14T23:57:12.077Z,24.03
2023-02-14T23:59:39.317Z,29.00
